sensor_id;sensor_type;location;lat;lon;timestamp;temperature;humidity
56771;DHT22;42641;59.794;17.616;2024-03-25T00:00:15;1.20;99.90
56771;DHT22;42641;59.794;17.616;2024-03-25T00:02:42;1.10;99.90
56771;DHT22;42641;59.794;17.616;2024-03-25T00:05:09;1.10;99.90
56771;DHT22;42641;59.794;17.616;2024-03-25T00:07:38;1.10;99.90
56771;DHT22;42641;59.794;17.616;2024-03-25T00:10:05;1.10;99.90
56771;DHT22;42641;59.794;17.616;2024-03-25T00:12:35;1.10;99.90
56771;DHT22;42641;59.794;17.616;2024-03-25T00:15:02;1.00;99.90
56771;DHT22;42641;59.794;17.616;2024-03-25T00:17:29;1.00;99.90
56771;DHT22;42641;59.794;17.616;2024-03-25T00:19:56;1.10;99.90
56771;DHT22;42641;59.794;17.616;2024-03-25T00:22:22;1.10;99.90
56771;DHT22;42641;59.794;17.616;2024-03-25T00:24:51;1.10;99.90
56771;DHT22;42641;59.794;17.616;2024-03-25T00:27:18;1.20;99.90
56771;DHT22;42641;59.794;17.616;2024-03-25T00:29:45;1.10;99.90
56771;DHT22;42641;59.794;17.616;2024-03-25T00:32:11;1.20;99.90
56771;DHT22;42641;59.794;17.616;2024-03-25T00:34:37;1.20;99.90
56771;DHT22;42641;59.794;17.616;2024-03-25T00:37:04;1.20;99.90
56771;DHT22;42641;59.794;17.616;2024-03-25T00:39:30;1.20;99.90
56771;DHT22;42641;59.794;17.616;2024-03-25T00:42:01;1.20;99.90
56771;DHT22;42641;59.794;17.616;2024-03-25T00:44:27;1.20;99.90
56771;DHT22;42641;59.794;17.616;2024-03-25T00:46:53;1.30;99.90
56771;DHT22;42641;59.794;17.616;2024-03-25T00:49:20;1.30;99.90
56771;DHT22;42641;59.794;17.616;2024-03-25T00:51:47;1.20;99.90
56771;DHT22;42641;59.794;17.616;2024-03-25T00:54:14;1.20;99.90
56771;DHT22;42641;59.794;17.616;2024-03-25T00:56:40;1.20;99.90
56771;DHT22;42641;59.794;17.616;2024-03-25T00:59:06;1.20;99.90
56771;DHT22;42641;59.794;17.616;2024-03-25T01:01:33;1.20;99.90
56771;DHT22;42641;59.794;17.616;2024-03-25T01:04:02;1.20;99.90
56771;DHT22;42641;59.794;17.616;2024-03-25T01:06:28;1.20;99.90
56771;DHT22;42641;59.794;17.616;2024-03-25T01:08:55;1.30;99.90
56771;DHT22;42641;59.794;17.616;2024-03-25T01:11:22;1.30;99.90
56771;DHT22;42641;59.794;17.616;2024-03-25T01:13:48;1.30;99.90
56771;DHT22;42641;59.794;17.616;2024-03-25T01:16:15;1.30;99.90
56771;DHT22;42641;59.794;17.616;2024-03-25T01:18:41;1.40;99.90
56771;DHT22;42641;59.794;17.616;2024-03-25T01:21:07;1.30;99.90
56771;DHT22;42641;59.794;17.616;2024-03-25T01:23:34;1.30;99.90
56771;DHT22;42641;59.794;17.616;2024-03-25T01:26:00;1.30;99.90
56771;DHT22;42641;59.794;17.616;2024-03-25T01:28:27;1.30;99.90
56771;DHT22;42641;59.794;17.616;2024-03-25T01:30:53;1.30;99.90
56771;DHT22;42641;59.794;17.616;2024-03-25T01:33:20;1.30;99.90
56771;DHT22;42641;59.794;17.616;2024-03-25T01:35:46;1.20;99.90
56771;DHT22;42641;59.794;17.616;2024-03-25T01:38:12;1.30;99.90
56771;DHT22;42641;59.794;17.616;2024-03-25T01:40:39;1.20;99.90
56771;DHT22;42641;59.794;17.616;2024-03-25T01:43:05;1.20;99.90
56771;DHT22;42641;59.794;17.616;2024-03-25T01:45:33;1.20;99.90
56771;DHT22;42641;59.794;17.616;2024-03-25T01:48:03;1.30;99.90
56771;DHT22;42641;59.794;17.616;2024-03-25T01:50:34;1.30;99.90
56771;DHT22;42641;59.794;17.616;2024-03-25T01:53:02;1.20;99.90
56771;DHT22;42641;59.794;17.616;2024-03-25T01:55:30;1.30;99.90
56771;DHT22;42641;59.794;17.616;2024-03-25T01:57:58;1.20;99.90
56771;DHT22;42641;59.794;17.616;2024-03-25T02:00:27;1.30;99.90
56771;DHT22;42641;59.794;17.616;2024-03-25T02:02:54;1.30;99.90
56771;DHT22;42641;59.794;17.616;2024-03-25T02:05:21;1.30;99.90
56771;DHT22;42641;59.794;17.616;2024-03-25T02:07:48;1.30;99.90
56771;DHT22;42641;59.794;17.616;2024-03-25T02:10:15;1.30;99.90
56771;DHT22;42641;59.794;17.616;2024-03-25T02:12:43;1.30;99.90
56771;DHT22;42641;59.794;17.616;2024-03-25T02:15:10;1.40;99.90
56771;DHT22;42641;59.794;17.616;2024-03-25T02:17:37;1.40;99.90
56771;DHT22;42641;59.794;17.616;2024-03-25T02:20:04;1.40;99.90
56771;DHT22;42641;59.794;17.616;2024-03-25T02:22:38;1.40;99.90
56771;DHT22;42641;59.794;17.616;2024-03-25T02:25:06;1.40;99.90
56771;DHT22;42641;59.794;17.616;2024-03-25T02:27:35;1.40;99.90
56771;DHT22;42641;59.794;17.616;2024-03-25T02:30:12;1.40;99.90
56771;DHT22;42641;59.794;17.616;2024-03-25T02:32:40;1.40;99.90
56771;DHT22;42641;59.794;17.616;2024-03-25T02:35:12;1.40;99.90
56771;DHT22;42641;59.794;17.616;2024-03-25T02:37:41;1.40;99.90
56771;DHT22;42641;59.794;17.616;2024-03-25T02:40:08;1.40;99.90
56771;DHT22;42641;59.794;17.616;2024-03-25T02:42:36;1.40;99.90
56771;DHT22;42641;59.794;17.616;2024-03-25T02:45:03;1.40;99.90
56771;DHT22;42641;59.794;17.616;2024-03-25T02:47:31;1.40;99.90
56771;DHT22;42641;59.794;17.616;2024-03-25T02:49:57;1.30;99.90
56771;DHT22;42641;59.794;17.616;2024-03-25T02:52:24;1.40;99.90
56771;DHT22;42641;59.794;17.616;2024-03-25T02:54:50;1.40;99.90
56771;DHT22;42641;59.794;17.616;2024-03-25T02:57:17;1.40;99.90
56771;DHT22;42641;59.794;17.616;2024-03-25T02:59:43;1.40;99.90
56771;DHT22;42641;59.794;17.616;2024-03-25T03:02:10;1.40;99.90
56771;DHT22;42641;59.794;17.616;2024-03-25T03:04:36;1.30;99.90
56771;DHT22;42641;59.794;17.616;2024-03-25T03:07:02;1.30;99.90
56771;DHT22;42641;59.794;17.616;2024-03-25T03:09:29;1.30;99.90
56771;DHT22;42641;59.794;17.616;2024-03-25T03:11:55;1.30;99.90
56771;DHT22;42641;59.794;17.616;2024-03-25T03:14:22;1.20;99.90
56771;DHT22;42641;59.794;17.616;2024-03-25T03:16:48;1.20;99.90
56771;DHT22;42641;59.794;17.616;2024-03-25T03:19:15;1.20;99.90
56771;DHT22;42641;59.794;17.616;2024-03-25T03:21:42;1.20;99.90
56771;DHT22;42641;59.794;17.616;2024-03-25T03:24:08;1.20;99.90
56771;DHT22;42641;59.794;17.616;2024-03-25T03:26:34;1.30;99.90
56771;DHT22;42641;59.794;17.616;2024-03-25T03:29:01;1.30;99.90
56771;DHT22;42641;59.794;17.616;2024-03-25T03:31:27;1.30;99.90
56771;DHT22;42641;59.794;17.616;2024-03-25T03:33:54;1.30;99.90
56771;DHT22;42641;59.794;17.616;2024-03-25T03:36:22;1.30;99.90
56771;DHT22;42641;59.794;17.616;2024-03-25T03:38:52;1.30;99.90
56771;DHT22;42641;59.794;17.616;2024-03-25T03:41:18;1.30;99.90
56771;DHT22;42641;59.794;17.616;2024-03-25T03:43:45;1.30;99.90
56771;DHT22;42641;59.794;17.616;2024-03-25T03:46:11;1.30;99.90
56771;DHT22;42641;59.794;17.616;2024-03-25T03:48:38;1.20;99.90
56771;DHT22;42641;59.794;17.616;2024-03-25T03:51:05;1.20;99.90
56771;DHT22;42641;59.794;17.616;2024-03-25T03:53:35;1.20;99.90
56771;DHT22;42641;59.794;17.616;2024-03-25T03:56:03;1.20;99.90
56771;DHT22;42641;59.794;17.616;2024-03-25T03:58:33;1.20;99.90
56771;DHT22;42641;59.794;17.616;2024-03-25T04:01:00;1.30;99.90
56771;DHT22;42641;59.794;17.616;2024-03-25T04:03:26;1.30;99.90
56771;DHT22;42641;59.794;17.616;2024-03-25T04:05:53;1.30;99.90
56771;DHT22;42641;59.794;17.616;2024-03-25T04:08:19;1.30;99.90
56771;DHT22;42641;59.794;17.616;2024-03-25T04:10:46;1.30;99.90
56771;DHT22;42641;59.794;17.616;2024-03-25T04:13:12;1.40;99.90
56771;DHT22;42641;59.794;17.616;2024-03-25T04:15:43;1.30;99.90
56771;DHT22;42641;59.794;17.616;2024-03-25T04:18:09;1.30;99.90
56771;DHT22;42641;59.794;17.616;2024-03-25T04:20:41;1.30;99.90
56771;DHT22;42641;59.794;17.616;2024-03-25T04:23:07;1.40;99.90
56771;DHT22;42641;59.794;17.616;2024-03-25T04:25:35;1.30;99.90
56771;DHT22;42641;59.794;17.616;2024-03-25T04:28:04;1.40;99.90
56771;DHT22;42641;59.794;17.616;2024-03-25T04:30:32;1.40;99.90
56771;DHT22;42641;59.794;17.616;2024-03-25T04:33:00;1.40;99.90
56771;DHT22;42641;59.794;17.616;2024-03-25T04:35:27;1.40;99.90
56771;DHT22;42641;59.794;17.616;2024-03-25T04:37:54;1.30;99.90
56771;DHT22;42641;59.794;17.616;2024-03-25T04:40:23;1.20;99.90
56771;DHT22;42641;59.794;17.616;2024-03-25T04:42:49;1.20;99.90
56771;DHT22;42641;59.794;17.616;2024-03-25T04:45:16;1.20;99.90
56771;DHT22;42641;59.794;17.616;2024-03-25T04:47:42;1.10;99.90
56771;DHT22;42641;59.794;17.616;2024-03-25T04:50:09;1.10;99.90
56771;DHT22;42641;59.794;17.616;2024-03-25T04:52:36;1.20;99.90
56771;DHT22;42641;59.794;17.616;2024-03-25T04:55:02;1.20;99.90
56771;DHT22;42641;59.794;17.616;2024-03-25T04:57:29;1.20;99.90
56771;DHT22;42641;59.794;17.616;2024-03-25T04:59:55;1.20;99.90
56771;DHT22;42641;59.794;17.616;2024-03-25T05:02:23;1.20;99.90
56771;DHT22;42641;59.794;17.616;2024-03-25T05:04:49;1.20;99.90
56771;DHT22;42641;59.794;17.616;2024-03-25T05:07:16;1.20;99.90
56771;DHT22;42641;59.794;17.616;2024-03-25T05:09:42;1.20;99.90
56771;DHT22;42641;59.794;17.616;2024-03-25T05:12:09;1.20;99.90
56771;DHT22;42641;59.794;17.616;2024-03-25T05:14:35;1.10;99.90
56771;DHT22;42641;59.794;17.616;2024-03-25T05:17:02;1.10;99.90
56771;DHT22;42641;59.794;17.616;2024-03-25T05:19:30;1.20;99.90
56771;DHT22;42641;59.794;17.616;2024-03-25T05:21:57;1.20;99.90
56771;DHT22;42641;59.794;17.616;2024-03-25T05:24:23;1.10;99.90
56771;DHT22;42641;59.794;17.616;2024-03-25T05:26:49;1.10;99.90
56771;DHT22;42641;59.794;17.616;2024-03-25T05:29:16;1.10;99.90
56771;DHT22;42641;59.794;17.616;2024-03-25T05:31:59;1.20;99.90
56771;DHT22;42641;59.794;17.616;2024-03-25T05:34:27;1.20;99.90
56771;DHT22;42641;59.794;17.616;2024-03-25T05:36:53;1.20;99.90
56771;DHT22;42641;59.794;17.616;2024-03-25T05:39:20;1.20;99.90
56771;DHT22;42641;59.794;17.616;2024-03-25T05:41:47;1.20;99.90
56771;DHT22;42641;59.794;17.616;2024-03-25T05:44:14;1.20;99.90
56771;DHT22;42641;59.794;17.616;2024-03-25T05:46:40;1.20;99.90
56771;DHT22;42641;59.794;17.616;2024-03-25T05:49:07;1.20;99.90
56771;DHT22;42641;59.794;17.616;2024-03-25T05:51:33;1.20;99.90
56771;DHT22;42641;59.794;17.616;2024-03-25T05:54:00;1.20;99.90
56771;DHT22;42641;59.794;17.616;2024-03-25T05:56:26;1.20;99.90
56771;DHT22;42641;59.794;17.616;2024-03-25T05:59:00;1.20;99.90
56771;DHT22;42641;59.794;17.616;2024-03-25T06:01:27;1.20;99.90
56771;DHT22;42641;59.794;17.616;2024-03-25T06:03:53;1.20;99.90
56771;DHT22;42641;59.794;17.616;2024-03-25T06:06:20;1.30;99.90
56771;DHT22;42641;59.794;17.616;2024-03-25T06:08:46;1.30;99.90
56771;DHT22;42641;59.794;17.616;2024-03-25T06:11:13;1.20;99.90
56771;DHT22;42641;59.794;17.616;2024-03-25T06:13:39;1.30;99.90
56771;DHT22;42641;59.794;17.616;2024-03-25T06:16:05;1.30;99.90
56771;DHT22;42641;59.794;17.616;2024-03-25T06:18:32;1.40;99.90
56771;DHT22;42641;59.794;17.616;2024-03-25T06:20:58;1.40;99.90
56771;DHT22;42641;59.794;17.616;2024-03-25T06:23:26;1.50;99.90
56771;DHT22;42641;59.794;17.616;2024-03-25T06:25:53;1.60;99.90
56771;DHT22;42641;59.794;17.616;2024-03-25T06:28:20;1.80;99.90
56771;DHT22;42641;59.794;17.616;2024-03-25T06:30:47;1.90;99.90
56771;DHT22;42641;59.794;17.616;2024-03-25T06:33:33;2.00;99.90
56771;DHT22;42641;59.794;17.616;2024-03-25T06:36:19;2.10;99.90
56771;DHT22;42641;59.794;17.616;2024-03-25T06:38:45;2.10;99.90
56771;DHT22;42641;59.794;17.616;2024-03-25T06:41:12;2.00;99.90
56771;DHT22;42641;59.794;17.616;2024-03-25T06:43:38;2.10;99.90
56771;DHT22;42641;59.794;17.616;2024-03-25T06:46:05;2.10;99.90
56771;DHT22;42641;59.794;17.616;2024-03-25T06:48:35;2.20;99.90
56771;DHT22;42641;59.794;17.616;2024-03-25T06:51:05;2.40;99.90
56771;DHT22;42641;59.794;17.616;2024-03-25T06:53:31;2.50;99.90
56771;DHT22;42641;59.794;17.616;2024-03-25T06:55:58;2.60;99.90
56771;DHT22;42641;59.794;17.616;2024-03-25T06:58:26;2.60;99.90
56771;DHT22;42641;59.794;17.616;2024-03-25T07:00:53;2.60;99.90
56771;DHT22;42641;59.794;17.616;2024-03-25T07:03:21;2.60;99.90
56771;DHT22;42641;59.794;17.616;2024-03-25T07:05:48;2.60;99.90
56771;DHT22;42641;59.794;17.616;2024-03-25T07:08:15;2.70;99.90
56771;DHT22;42641;59.794;17.616;2024-03-25T07:10:42;2.70;99.90
56771;DHT22;42641;59.794;17.616;2024-03-25T07:13:09;2.80;99.90
56771;DHT22;42641;59.794;17.616;2024-03-25T07:15:36;2.90;99.90
56771;DHT22;42641;59.794;17.616;2024-03-25T07:18:03;2.80;99.90
56771;DHT22;42641;59.794;17.616;2024-03-25T07:20:31;2.80;99.90
56771;DHT22;42641;59.794;17.616;2024-03-25T07:22:57;2.90;99.90
56771;DHT22;42641;59.794;17.616;2024-03-25T07:25:24;3.00;99.90
56771;DHT22;42641;59.794;17.616;2024-03-25T07:27:52;3.00;99.90
56771;DHT22;42641;59.794;17.616;2024-03-25T07:30:21;3.00;99.90
56771;DHT22;42641;59.794;17.616;2024-03-25T07:32:58;3.20;99.90
56771;DHT22;42641;59.794;17.616;2024-03-25T07:35:25;3.30;99.90
56771;DHT22;42641;59.794;17.616;2024-03-25T07:37:52;3.30;99.90
56771;DHT22;42641;59.794;17.616;2024-03-25T07:40:22;3.50;99.90
56771;DHT22;42641;59.794;17.616;2024-03-25T07:42:48;3.70;99.90
56771;DHT22;42641;59.794;17.616;2024-03-25T07:45:16;3.80;99.90
56771;DHT22;42641;59.794;17.616;2024-03-25T07:47:42;3.90;99.90
56771;DHT22;42641;59.794;17.616;2024-03-25T07:50:09;3.80;99.90
56771;DHT22;42641;59.794;17.616;2024-03-25T07:52:35;3.80;99.90
56771;DHT22;42641;59.794;17.616;2024-03-25T07:55:07;3.70;99.90
56771;DHT22;42641;59.794;17.616;2024-03-25T07:57:33;3.50;99.90
56771;DHT22;42641;59.794;17.616;2024-03-25T08:00:00;3.50;99.90
56771;DHT22;42641;59.794;17.616;2024-03-25T08:02:26;3.70;99.90
56771;DHT22;42641;59.794;17.616;2024-03-25T08:04:53;3.90;99.90
56771;DHT22;42641;59.794;17.616;2024-03-25T08:07:19;3.80;99.90
56771;DHT22;42641;59.794;17.616;2024-03-25T08:09:45;3.80;99.90
56771;DHT22;42641;59.794;17.616;2024-03-25T08:12:12;3.90;99.90
56771;DHT22;42641;59.794;17.616;2024-03-25T08:14:38;4.10;99.90
56771;DHT22;42641;59.794;17.616;2024-03-25T08:17:05;4.30;99.90
56771;DHT22;42641;59.794;17.616;2024-03-25T08:19:31;4.50;99.90
56771;DHT22;42641;59.794;17.616;2024-03-25T08:21:57;4.70;99.90
56771;DHT22;42641;59.794;17.616;2024-03-25T08:24:24;4.80;99.90
56771;DHT22;42641;59.794;17.616;2024-03-25T08:26:50;4.90;99.90
56771;DHT22;42641;59.794;17.616;2024-03-25T08:29:17;4.80;99.90
56771;DHT22;42641;59.794;17.616;2024-03-25T08:31:43;4.60;99.90
56771;DHT22;42641;59.794;17.616;2024-03-25T08:34:10;4.40;99.90
56771;DHT22;42641;59.794;17.616;2024-03-25T08:36:36;4.40;99.90
56771;DHT22;42641;59.794;17.616;2024-03-25T08:39:02;4.50;99.90
56771;DHT22;42641;59.794;17.616;2024-03-25T08:41:30;4.50;99.90
56771;DHT22;42641;59.794;17.616;2024-03-25T08:43:56;4.50;99.90
56771;DHT22;42641;59.794;17.616;2024-03-25T08:46:23;4.60;99.90
56771;DHT22;42641;59.794;17.616;2024-03-25T08:48:49;4.70;99.90
56771;DHT22;42641;59.794;17.616;2024-03-25T08:51:17;4.70;99.90
56771;DHT22;42641;59.794;17.616;2024-03-25T08:53:43;4.70;99.90
56771;DHT22;42641;59.794;17.616;2024-03-25T08:56:11;4.70;99.90
56771;DHT22;42641;59.794;17.616;2024-03-25T08:58:37;4.80;99.90
56771;DHT22;42641;59.794;17.616;2024-03-25T09:01:04;4.90;99.90
56771;DHT22;42641;59.794;17.616;2024-03-25T09:03:32;5.00;99.90
56771;DHT22;42641;59.794;17.616;2024-03-25T09:05:59;5.00;99.90
56771;DHT22;42641;59.794;17.616;2024-03-25T09:08:26;5.10;99.90
56771;DHT22;42641;59.794;17.616;2024-03-25T09:10:52;4.90;99.90
56771;DHT22;42641;59.794;17.616;2024-03-25T09:13:33;4.90;99.90
56771;DHT22;42641;59.794;17.616;2024-03-25T09:15:59;5.00;99.90
56771;DHT22;42641;59.794;17.616;2024-03-25T09:18:25;4.90;99.90
56771;DHT22;42641;59.794;17.616;2024-03-25T09:20:52;4.90;99.90
56771;DHT22;42641;59.794;17.616;2024-03-25T09:23:19;4.90;99.90
56771;DHT22;42641;59.794;17.616;2024-03-25T09:25:52;4.80;99.90
56771;DHT22;42641;59.794;17.616;2024-03-25T09:28:19;4.80;99.90
56771;DHT22;42641;59.794;17.616;2024-03-25T09:30:48;5.10;99.90
56771;DHT22;42641;59.794;17.616;2024-03-25T09:33:15;5.30;99.90
56771;DHT22;42641;59.794;17.616;2024-03-25T09:35:42;5.50;99.90
56771;DHT22;42641;59.794;17.616;2024-03-25T09:38:08;5.60;99.90
56771;DHT22;42641;59.794;17.616;2024-03-25T09:40:40;5.60;99.90
56771;DHT22;42641;59.794;17.616;2024-03-25T09:43:36;5.50;99.90
56771;DHT22;42641;59.794;17.616;2024-03-25T09:46:06;5.50;99.90
56771;DHT22;42641;59.794;17.616;2024-03-25T09:48:36;5.70;99.90
56771;DHT22;42641;59.794;17.616;2024-03-25T09:51:04;5.80;99.90
56771;DHT22;42641;59.794;17.616;2024-03-25T09:53:31;5.70;99.90
56771;DHT22;42641;59.794;17.616;2024-03-25T09:55:57;5.60;99.90
56771;DHT22;42641;59.794;17.616;2024-03-25T09:58:25;5.60;99.90
56771;DHT22;42641;59.794;17.616;2024-03-25T10:00:53;5.70;99.90
56771;DHT22;42641;59.794;17.616;2024-03-25T10:03:21;5.70;99.90
56771;DHT22;42641;59.794;17.616;2024-03-25T10:05:48;5.70;99.90
56771;DHT22;42641;59.794;17.616;2024-03-25T10:08:23;5.80;99.90
56771;DHT22;42641;59.794;17.616;2024-03-25T10:10:54;5.80;99.90
56771;DHT22;42641;59.794;17.616;2024-03-25T10:13:22;5.90;99.90
56771;DHT22;42641;59.794;17.616;2024-03-25T10:15:49;6.00;99.90
56771;DHT22;42641;59.794;17.616;2024-03-25T10:18:17;6.10;99.90
56771;DHT22;42641;59.794;17.616;2024-03-25T10:20:50;6.30;99.90
56771;DHT22;42641;59.794;17.616;2024-03-25T10:23:23;6.30;99.90
56771;DHT22;42641;59.794;17.616;2024-03-25T10:25:53;6.30;99.90
56771;DHT22;42641;59.794;17.616;2024-03-25T10:28:20;6.30;99.90
56771;DHT22;42641;59.794;17.616;2024-03-25T10:30:46;6.60;99.90
56771;DHT22;42641;59.794;17.616;2024-03-25T10:33:13;6.70;99.90
56771;DHT22;42641;59.794;17.616;2024-03-25T10:35:40;6.90;99.90
56771;DHT22;42641;59.794;17.616;2024-03-25T10:38:10;7.10;99.90
56771;DHT22;42641;59.794;17.616;2024-03-25T10:40:39;7.30;99.90
56771;DHT22;42641;59.794;17.616;2024-03-25T10:43:08;7.20;99.90
56771;DHT22;42641;59.794;17.616;2024-03-25T10:45:38;7.20;99.90
56771;DHT22;42641;59.794;17.616;2024-03-25T10:48:27;7.10;99.90
56771;DHT22;42641;59.794;17.616;2024-03-25T10:50:55;7.00;99.90
56771;DHT22;42641;59.794;17.616;2024-03-25T10:53:22;7.00;99.90
56771;DHT22;42641;59.794;17.616;2024-03-25T10:55:54;7.20;99.90
56771;DHT22;42641;59.794;17.616;2024-03-25T10:58:22;7.10;99.90
56771;DHT22;42641;59.794;17.616;2024-03-25T11:00:51;7.20;99.90
56771;DHT22;42641;59.794;17.616;2024-03-25T11:03:18;7.50;99.90
56771;DHT22;42641;59.794;17.616;2024-03-25T11:05:47;7.50;99.90
56771;DHT22;42641;59.794;17.616;2024-03-25T11:08:15;7.40;99.90
56771;DHT22;42641;59.794;17.616;2024-03-25T11:10:47;7.60;99.90
56771;DHT22;42641;59.794;17.616;2024-03-25T11:13:17;7.70;99.90
56771;DHT22;42641;59.794;17.616;2024-03-25T11:15:48;7.80;99.90
56771;DHT22;42641;59.794;17.616;2024-03-25T11:18:22;8.10;99.90
56771;DHT22;42641;59.794;17.616;2024-03-25T11:21:04;8.70;99.90
56771;DHT22;42641;59.794;17.616;2024-03-25T11:23:44;9.40;99.90
56771;DHT22;42641;59.794;17.616;2024-03-25T11:26:26;9.90;99.90
56771;DHT22;42641;59.794;17.616;2024-03-25T11:28:56;10.60;99.90
56771;DHT22;42641;59.794;17.616;2024-03-25T11:31:26;11.30;99.90
56771;DHT22;42641;59.794;17.616;2024-03-25T11:33:53;11.80;99.90
56771;DHT22;42641;59.794;17.616;2024-03-25T11:36:20;11.80;99.90
56771;DHT22;42641;59.794;17.616;2024-03-25T11:38:58;11.50;99.90
56771;DHT22;42641;59.794;17.616;2024-03-25T11:41:25;10.90;99.90
56771;DHT22;42641;59.794;17.616;2024-03-25T11:43:52;10.10;99.90
56771;DHT22;42641;59.794;17.616;2024-03-25T11:46:19;9.80;99.90
56771;DHT22;42641;59.794;17.616;2024-03-25T11:48:45;10.20;99.90
56771;DHT22;42641;59.794;17.616;2024-03-25T11:51:17;10.40;99.90
56771;DHT22;42641;59.794;17.616;2024-03-25T11:53:44;10.30;99.90
56771;DHT22;42641;59.794;17.616;2024-03-25T11:56:14;10.00;99.90
56771;DHT22;42641;59.794;17.616;2024-03-25T11:58:40;9.80;99.90
56771;DHT22;42641;59.794;17.616;2024-03-25T12:01:07;9.60;99.90
56771;DHT22;42641;59.794;17.616;2024-03-25T12:03:36;9.20;99.90
56771;DHT22;42641;59.794;17.616;2024-03-25T12:06:03;9.00;99.90
56771;DHT22;42641;59.794;17.616;2024-03-25T12:08:29;9.10;99.90
56771;DHT22;42641;59.794;17.616;2024-03-25T12:11:00;9.00;99.90
56771;DHT22;42641;59.794;17.616;2024-03-25T12:13:44;8.80;99.90
56771;DHT22;42641;59.794;17.616;2024-03-25T12:16:11;8.80;99.90
56771;DHT22;42641;59.794;17.616;2024-03-25T12:18:40;8.60;99.90
56771;DHT22;42641;59.794;17.616;2024-03-25T12:21:08;8.40;99.90
56771;DHT22;42641;59.794;17.616;2024-03-25T12:23:36;8.40;99.90
56771;DHT22;42641;59.794;17.616;2024-03-25T12:26:04;8.20;99.90
56771;DHT22;42641;59.794;17.616;2024-03-25T12:28:33;8.10;99.90
56771;DHT22;42641;59.794;17.616;2024-03-25T12:31:07;8.30;99.90
56771;DHT22;42641;59.794;17.616;2024-03-25T12:33:41;8.60;99.90
56771;DHT22;42641;59.794;17.616;2024-03-25T12:36:07;8.60;99.90
56771;DHT22;42641;59.794;17.616;2024-03-25T12:38:34;8.50;99.90
56771;DHT22;42641;59.794;17.616;2024-03-25T12:41:05;8.20;99.90
56771;DHT22;42641;59.794;17.616;2024-03-25T12:43:32;7.80;99.90
56771;DHT22;42641;59.794;17.616;2024-03-25T12:46:00;7.50;99.90
56771;DHT22;42641;59.794;17.616;2024-03-25T12:48:26;7.40;99.90
56771;DHT22;42641;59.794;17.616;2024-03-25T12:50:53;7.30;99.90
56771;DHT22;42641;59.794;17.616;2024-03-25T12:53:22;7.40;99.90
56771;DHT22;42641;59.794;17.616;2024-03-25T12:55:48;7.40;99.90
56771;DHT22;42641;59.794;17.616;2024-03-25T12:58:15;7.50;99.90
56771;DHT22;42641;59.794;17.616;2024-03-25T13:00:41;7.60;99.90
56771;DHT22;42641;59.794;17.616;2024-03-25T13:03:08;7.70;99.90
56771;DHT22;42641;59.794;17.616;2024-03-25T13:05:35;7.80;99.90
56771;DHT22;42641;59.794;17.616;2024-03-25T13:08:02;7.80;99.90
56771;DHT22;42641;59.794;17.616;2024-03-25T13:10:29;8.00;99.90
56771;DHT22;42641;59.794;17.616;2024-03-25T13:12:56;8.20;99.90
56771;DHT22;42641;59.794;17.616;2024-03-25T13:15:23;8.30;99.90
56771;DHT22;42641;59.794;17.616;2024-03-25T13:17:49;8.20;99.90
56771;DHT22;42641;59.794;17.616;2024-03-25T13:20:15;8.10;99.90
56771;DHT22;42641;59.794;17.616;2024-03-25T13:22:42;8.10;99.90
56771;DHT22;42641;59.794;17.616;2024-03-25T13:25:11;8.00;99.90
56771;DHT22;42641;59.794;17.616;2024-03-25T13:27:37;7.90;99.90
56771;DHT22;42641;59.794;17.616;2024-03-25T13:30:05;7.70;99.90
56771;DHT22;42641;59.794;17.616;2024-03-25T13:32:32;7.50;99.90
56771;DHT22;42641;59.794;17.616;2024-03-25T13:34:58;7.30;99.90
56771;DHT22;42641;59.794;17.616;2024-03-25T13:37:24;7.10;99.90
56771;DHT22;42641;59.794;17.616;2024-03-25T13:39:51;6.90;99.90
56771;DHT22;42641;59.794;17.616;2024-03-25T13:42:19;6.80;99.90
56771;DHT22;42641;59.794;17.616;2024-03-25T13:44:45;6.70;99.90
56771;DHT22;42641;59.794;17.616;2024-03-25T13:47:11;6.70;99.90
56771;DHT22;42641;59.794;17.616;2024-03-25T13:49:38;6.70;99.90
56771;DHT22;42641;59.794;17.616;2024-03-25T13:52:05;6.70;99.90
56771;DHT22;42641;59.794;17.616;2024-03-25T13:54:31;6.80;99.90
56771;DHT22;42641;59.794;17.616;2024-03-25T13:56:57;6.80;99.90
56771;DHT22;42641;59.794;17.616;2024-03-25T13:59:24;6.80;99.90
56771;DHT22;42641;59.794;17.616;2024-03-25T14:01:50;6.70;99.90
56771;DHT22;42641;59.794;17.616;2024-03-25T14:04:18;6.70;99.90
56771;DHT22;42641;59.794;17.616;2024-03-25T14:06:44;6.70;99.90
56771;DHT22;42641;59.794;17.616;2024-03-25T14:09:27;6.60;99.90
56771;DHT22;42641;59.794;17.616;2024-03-25T14:11:54;6.60;99.90
56771;DHT22;42641;59.794;17.616;2024-03-25T14:14:20;6.60;99.90
56771;DHT22;42641;59.794;17.616;2024-03-25T14:16:47;6.50;99.90
56771;DHT22;42641;59.794;17.616;2024-03-25T14:19:13;6.50;99.90
56771;DHT22;42641;59.794;17.616;2024-03-25T14:21:40;6.50;99.90
56771;DHT22;42641;59.794;17.616;2024-03-25T14:24:07;6.40;99.90
56771;DHT22;42641;59.794;17.616;2024-03-25T14:26:33;6.30;99.90
56771;DHT22;42641;59.794;17.616;2024-03-25T14:29:00;6.20;99.90
56771;DHT22;42641;59.794;17.616;2024-03-25T14:31:27;6.20;99.90
56771;DHT22;42641;59.794;17.616;2024-03-25T14:33:58;6.20;99.90
56771;DHT22;42641;59.794;17.616;2024-03-25T14:36:25;6.20;99.90
56771;DHT22;42641;59.794;17.616;2024-03-25T14:38:51;6.10;99.90
56771;DHT22;42641;59.794;17.616;2024-03-25T14:41:21;6.10;99.90
56771;DHT22;42641;59.794;17.616;2024-03-25T14:43:47;6.10;99.90
56771;DHT22;42641;59.794;17.616;2024-03-25T14:46:16;6.00;99.90
56771;DHT22;42641;59.794;17.616;2024-03-25T14:48:44;6.10;99.90
56771;DHT22;42641;59.794;17.616;2024-03-25T14:51:10;6.10;99.90
56771;DHT22;42641;59.794;17.616;2024-03-25T14:53:37;6.00;99.90
56771;DHT22;42641;59.794;17.616;2024-03-25T14:56:03;6.00;99.90
56771;DHT22;42641;59.794;17.616;2024-03-25T14:58:30;6.00;99.90
56771;DHT22;42641;59.794;17.616;2024-03-25T15:00:57;5.80;99.90
56771;DHT22;42641;59.794;17.616;2024-03-25T15:03:24;5.80;99.90
56771;DHT22;42641;59.794;17.616;2024-03-25T15:05:50;5.60;99.90
56771;DHT22;42641;59.794;17.616;2024-03-25T15:08:17;5.70;99.90
56771;DHT22;42641;59.794;17.616;2024-03-25T15:10:46;5.70;99.90
56771;DHT22;42641;59.794;17.616;2024-03-25T15:13:13;5.70;99.90
56771;DHT22;42641;59.794;17.616;2024-03-25T15:15:40;5.60;99.90
56771;DHT22;42641;59.794;17.616;2024-03-25T15:18:08;5.60;99.90
56771;DHT22;42641;59.794;17.616;2024-03-25T15:20:35;5.60;99.90
56771;DHT22;42641;59.794;17.616;2024-03-25T15:23:01;5.60;99.90
56771;DHT22;42641;59.794;17.616;2024-03-25T15:25:29;5.60;99.90
56771;DHT22;42641;59.794;17.616;2024-03-25T15:27:55;5.60;99.90
56771;DHT22;42641;59.794;17.616;2024-03-25T15:30:21;5.50;99.90
56771;DHT22;42641;59.794;17.616;2024-03-25T15:32:48;5.50;99.90